Whale Point, California Weather observations

Data are for observation ending at time listed.
 Day   Time    Ave.   Ave.  Ave.  Vector   Max.   Stn.    Total    Solar   Ave.  
  of    of     Air    Rel.  Wind   Wind    Wind   Baro.  Precip.   Rad.    Soil  
Year   Day     Temp.  Hum.  Speed  Dir.    Gust   Pres.                    Temp. 
2015   (PST)    F      %     mph   deg.    mph     mb.     in.     W/m2     F   
------------------------------------------------------------------------------
  31    3:40   51.9    91    3.1   105      6.5   989.8    0.00       0    59.0
  31    3:50   51.8    91    1.4    14      4.4   989.8    0.00       0    58.9
  31    4:00   51.5    91    1.7     1      4.4   989.5    0.00       0    58.9
  31    4:10   51.3    91    2.1    85      4.5   989.8    0.00       0    58.9
  31    4:20   51.5    91    1.1   243      4.5   989.8    0.00       0    58.8
  31    4:30   51.3    91    0.8   342      3.7   989.8    0.00       0    58.8
  31    4:40   51.6    91    2.7   157      6.6   989.8    0.00       0    58.7
  31    4:50   50.5    90    3.1    24      9.3   989.8    0.00       0    58.7
  31    5:00   50.6    90    2.7    48      8.6   989.8    0.00       0    58.7
  31    5:10   50.8    90    1.7    58      4.5   989.8    0.00       0    58.6
  31    5:20   51.0    90    2.5    47      8.6   989.8    0.00       0    58.6
  31    5:30   50.3    90    6.1    47     11.0   989.8    0.00       0    58.6
  31    5:40   50.4    89    5.7    34     13.9   989.8    0.00       0    58.5
  31    5:50   50.7    88    2.8   115      6.6   989.8    0.00       0    58.5
  31    6:00   50.5    86    1.8    28      3.9   989.8    0.00       0    58.5
  31    6:10   50.5    85    1.6    91      4.4   990.2    0.00       0    58.4
  31    6:20   50.9    87    1.2    55      3.7   990.5    0.00       0    58.4
  31    6:30   52.0    83    3.3    42      6.1   990.5    0.00       0    58.4
  31    6:40   52.9    76    2.0    88      4.9   990.5    0.00       0    58.3
  31    6:50   52.4    77    2.0    58      5.0   990.9    0.00       0    58.3
  31    7:00   53.3    71    4.5    42      8.8   990.9    0.00       1    58.2
  31    7:10   54.1    67    2.5    66      8.6   990.9    0.00       3    58.2
  31    7:20   52.8    71    1.1    62      3.1   990.9    0.00       6    58.2
  31    7:30   53.4    69    2.8    47      5.9   990.9    0.00      10    58.1
  31    7:40   55.5    58    2.1    94      5.4   991.2    0.00      13    58.1
  31    7:50   53.1    68    4.0    39      8.1   991.2    0.00      15    58.0
  31    8:00   53.4    65    2.0   142      4.9   991.5    0.00      17    58.0
  31    8:10   52.6    71    2.6   121      7.1   991.9    0.00      20    58.0
  31    8:20   52.2    75    3.9   166      9.2   991.9    0.00      22    57.9
  31    8:30   52.6    77    2.3    48      6.2   992.2    0.00      23    57.9
  31    8:40   52.4    76    2.9   173      6.7   992.2    0.00      28    57.8
  31    8:50   52.8    83    3.5   188      7.0   992.2    0.00     165    57.8
  31    9:00   53.7    84    3.4   187      6.7   992.6    0.00     303    57.7
  31    9:10   54.2    82    2.0   185      4.5   992.6    0.00     339    57.7
  31    9:20   55.3    80    2.5   162      4.7   992.9    0.00     373    57.7
  31    9:30   55.3    78    3.4   348     10.4   992.6    0.00     408    57.6
  31    9:40   55.1    83    3.6   184      9.1   992.9    0.00     427    57.6
  31    9:50   56.3    77    1.5   334      4.1   992.9    0.00     462    57.6
  31   10:00   57.4    76    3.0   179      8.0   992.9    0.00     483    57.5
  31   10:10   58.1    73    5.7   179      9.6   992.9    0.00     508    57.5
  31   10:20   57.0    78    5.3   178     11.6   993.2    0.00     529    57.5
  31   10:30   56.6    80    4.9   203      9.1   993.2    0.00     551    57.5
  31   10:40   56.7    81    6.8   192     11.5   993.2    0.00     570    57.5
  31   10:50   56.9    79    3.3   216      6.5   993.2    0.00     587    57.5
  31   11:00   57.1    77    5.7   208      9.1   993.6    0.00     602    57.4
  31   11:10   56.9    76    5.0   212     10.2   993.6    0.00     617    57.4
  31   11:20   57.1    76    5.1   215      9.4   993.6    0.00     628    57.4
  31   11:30   57.1    78    5.6   214      8.0   993.9    0.00     637    57.4
  31   11:40   57.6    79    5.1   213      7.1   993.9    0.00     645    57.4
  31   11:50   57.8    78    3.0   213      8.0   994.2    0.00     652    57.4
  31   12:00   58.5    72    3.9   218      7.5   994.2    0.00     655    57.5
  31   12:10   58.8    77    4.0   204      7.1   994.2    0.00     657    57.5
  31   12:20   59.6    71    3.2   190      7.5   993.9    0.00     661    57.5
  31   12:30   59.6    73    4.2   211      7.9   993.6    0.00     663    57.5
  31   12:40   59.9    71    5.0   202      8.4   993.6    0.00     660    57.6
  31   12:50   59.8    70    4.5   202      8.7   993.6    0.00     655    57.6
  31   13:00   59.0    74    4.7   227      9.7   993.2    0.00     650    57.7
  31   13:10   59.7    71    4.0   215      7.5   993.2    0.00     644    57.8
  31   13:20   60.3    69    5.1   231      8.8   993.2    0.00     635    57.8
  31   13:30   60.7    69    4.6   208      8.0   993.2    0.00     624    57.9
  31   13:40   61.6    63    3.3   236      6.1   993.2    0.00     613    58.0
  31   13:50   61.3    62    3.7   215      5.8   992.9    0.00     598    58.0
  31   14:00   62.0    62    4.5   218      9.2   992.6    0.00     583    58.1
  31   14:10   61.4    63    5.6   218     11.8   992.9    0.00     564    58.2
  31   14:20   61.9    61    5.4   211      8.8   993.2    0.00     542    58.3
  31   14:30   62.1    58    5.1   227     10.2   993.6    0.00     522    58.4
  31   14:40   62.1    56    3.3   225      5.7   993.9    0.00     499    58.4
  31   14:50   64.2    54    1.4   287      3.8   993.6    0.00     477    58.5
  31   15:00   65.0    46    1.0    15      3.5   993.6    0.00     451    58.7
  31   15:10   66.7    45    2.8   215      5.3   993.2    0.00     426    58.8
  31   15:20   65.2    48    5.7   222     10.0   993.2    0.00     398    58.9
  31   15:30   62.9    50    6.6   222     11.3   993.2    0.00     369    59.0
  31   15:40   63.4    50    6.1   224     10.7   993.6    0.00     338    59.1
  31   15:50   63.8    48    4.1   227      6.7   993.9    0.00     307    59.2
  31   16:00   64.2    48    2.5   182      5.4   993.9    0.00     275    59.3
  31   16:10   64.5    47    1.5   303      4.2   993.9    0.00     247    59.4
  31   16:20   63.1    47    2.4    37      5.8   993.9    0.00     216    59.6
  31   16:30   62.4    50    3.2   348      6.9   993.6    0.00     185    59.7
  31   16:40   63.5    58    4.2   221      9.4   993.9    0.00     154    59.8
  31   16:50   62.1    62    2.7   227      6.2   993.9    0.00     125    59.9
  31   17:00   60.6    60    4.4    28      9.1   993.6    0.00      97    60.0
  31   17:10   60.8    55    8.4    55     10.9   993.6    0.00      69    60.1
  31   17:20   61.1    51    7.6    69     12.2   993.2    0.00      42    60.2
  31   17:30   61.1    54    3.3   133      8.5   993.6    0.00      19    60.3
  31   17:40   59.3    60    2.9    87      7.9   993.6    0.00       4    60.4
  31   17:50   59.8    53    4.6    73      7.7   993.9    0.00       1    60.4
  31   18:00   60.6    50    7.0    64     10.1   993.9    0.00       0    60.5
  31   18:10   60.1    50    7.8    66     11.2   994.2    0.00       0    60.5
  31   18:20   59.7    50    6.3    52      8.6   994.2    0.00       0    60.6
  31   18:30   60.1    47    5.0    64      9.1   994.2    0.00       0    60.6
  31   18:40   58.5    59    1.4    72      3.8   994.6    0.00       0    60.6
  31   18:50   57.8    55    2.3    20      5.0   994.6    0.00       0    60.7
  31   19:00   58.6    45    6.4    18      9.1   994.6    0.00       0    60.7
  31   19:10   59.4    43    7.2    35      9.6   994.6    0.00       0    60.7
  31   19:20   59.2    42    6.1    28      8.7   994.9    0.00       0    60.7
  31   19:30   60.2    40    4.8    23      9.4   994.9    0.00       0    60.7
  31   19:40   60.3    42    1.2    67      3.0   994.9    0.00       0    60.7
  31   19:50   59.6    37    4.7    61      8.2   994.9    0.00       0    60.7
  31   20:00   59.0    35    6.9    62     10.2   994.9    0.00       0    60.7
  31   20:10   59.9    34    4.9    94     10.9   994.9    0.00       0    60.7
  31   20:20   59.5    33    3.7    81      7.1   994.9    0.00       0    60.7
  31   20:30   59.3    37    3.0    81      7.2   995.3    0.00       0    60.6
  31   20:40   58.4    38    3.3    46      6.1   995.3    0.00       0    60.6
  31   20:50   59.5    32    2.4    69      5.4   995.6    0.00       0    60.6
  31   21:00   58.5    34    3.8    60      7.0   995.6    0.00       0    60.6
  31   21:10   58.7    33    2.8   127      7.2   995.6    0.00       0    60.5
  31   21:20   56.4    43    2.3   124      4.9   995.9    0.00       0    60.5
  31   21:30   56.0    48    1.7    58      3.6   995.9    0.00       0    60.5
  31   21:40   56.9    38    2.4    81      7.0   995.9    0.00       0    60.4
  31   21:50   57.8    34    7.3    48     10.5   995.9    0.00       0    60.4
  31   22:00   58.5    32    8.5    58     10.7   995.9    0.00       0    60.3
  31   22:10   58.8    32    8.4    66     11.0   995.9    0.00       0    60.3
  31   22:20   59.5    34    2.5   152      6.0   996.3    0.00       0    60.2
  31   22:30   57.5    38    3.3    76      5.8   996.6    0.00       0    60.2
  31   22:40   56.6    42    2.0   131      4.0   996.6    0.00       0    60.2
  31   22:50   57.3    40    2.8   101      7.9   996.6    0.00       0    60.1
  31   23:00   58.1    33    7.8    71     11.4   996.3    0.00       0    60.1
  31   23:10   58.5    32    9.2    63     12.3   996.3    0.00       0    60.0
  31   23:20   58.8    30    9.0    56     11.8   996.3    0.00       0    60.0
  31   23:30   59.6    35    4.1    96     11.2   996.6    0.00       0    59.9
  31   23:40   55.6    49    2.1   142      3.9   997.0    0.00       0    59.9
  31   23:50   54.8    51    1.3   140      3.7   997.0    0.00       0    59.8
  32    0:00   54.9    41    2.0    44      5.3   997.0    0.00       0    59.8
  32    0:10   56.8    32    2.7    71      7.4   997.0    0.00       0    59.7
  32    0:20   56.6    36    0.8   344      2.5   997.0    0.00       0    59.6
  32    0:30   57.4    31    6.1    44      9.9   997.0    0.00       0    59.6
  32    0:40   59.1    28    8.2    54     12.3   996.6    0.00       0    59.5
  32    0:50   59.1    28    9.9    59     12.8   996.6    0.00       0    59.5
  32    1:00   59.8    26    8.7    54     12.1   996.6    0.00       0    59.5
  32    1:10   59.8    26    5.8    65      8.9   996.6    0.00       0    59.4
  32    1:20   59.7    26    6.4    69     10.4   996.6    0.00       0    59.4
  32    1:30   59.8    26    8.8    60     12.9   997.0    0.00       0    59.3
  32    1:40   59.6    26    8.9    63     12.0   997.0    0.00       0    59.3
  32    1:50   59.6    27    9.3    62     11.9   997.0    0.00       0    59.2
  32    2:00   59.8    26    8.8    62     12.1   997.0    0.00       0    59.2
  32    2:10   60.6    25    9.2    60     11.4   997.0    0.00       0    59.1
  32    2:20   60.2    26    9.6    61     12.1   996.6    0.00       0    59.1
  32    2:30   60.0    26    9.3    61     12.1   996.6    0.00       0    59.0
  32    2:40   60.2    26    8.4    66     11.6   997.0    0.00       0    59.0
  32    2:50   60.3    25    8.6    62     12.4   997.0    0.00       0    58.9
  32    3:00   59.7    26   10.1    65     12.9   996.6    0.00       0    58.9
  32    3:10   59.4    27   10.4    56     12.8   997.0    0.00       0    58.9
  32    3:20   59.5    27    9.8    60     11.9   997.0    0.00       0    58.8
  32    3:30   59.7    27    9.9    60     12.6   997.0    0.00       0    58.8

Return to Whale Point graphs page.


Western Regional Climate Center,wrcc@dri.edu